createdAt,value
2023-10-09T00:00:52.299Z,18.40
2023-10-09T00:03:39.224Z,18.50
2023-10-09T00:06:37.884Z,18.00
2023-10-09T00:12:33.967Z,18.40
2023-10-09T00:15:21.979Z,18.40
2023-10-09T00:18:13.366Z,17.90
2023-10-09T00:21:12.828Z,17.30
2023-10-09T00:24:04.698Z,17.40
2023-10-09T00:27:04.323Z,17.60
2023-10-09T00:29:56.002Z,17.80
2023-10-09T00:33:00.253Z,17.90
2023-10-09T00:35:55.486Z,17.50
2023-10-09T00:38:47.119Z,17.40
2023-10-09T00:41:36.499Z,17.70
2023-10-09T00:44:27.008Z,17.90
2023-10-09T00:47:27.439Z,17.60
2023-10-09T00:50:24.380Z,17.00
2023-10-09T00:53:13.419Z,17.40
2023-10-09T00:56:12.548Z,17.60
2023-10-09T00:59:09.443Z,17.80
2023-10-09T01:01:59.059Z,17.80
2023-10-09T01:04:53.494Z,17.60
2023-10-09T01:07:41.778Z,17.10
2023-10-09T01:10:35.432Z,17.30
2023-10-09T01:13:29.617Z,17.60
2023-10-09T01:16:18.943Z,17.30
2023-10-09T01:19:14.017Z,17.10
2023-10-09T01:22:05.393Z,17.30
2023-10-09T01:25:07.141Z,17.40
2023-10-09T01:27:56.291Z,17.20
2023-10-09T01:30:48.695Z,17.50
2023-10-09T01:33:37.669Z,17.80
2023-10-09T01:36:32.606Z,17.50
2023-10-09T01:39:27.559Z,17.60
2023-10-09T01:42:24.843Z,18.00
2023-10-09T01:45:17.806Z,17.90
2023-10-09T01:48:06.524Z,17.80
2023-10-09T01:50:57.197Z,17.60
2023-10-09T01:53:44.725Z,17.80
2023-10-09T01:56:32.109Z,18.20
2023-10-09T01:59:22.326Z,18.20
2023-10-09T02:02:19.388Z,18.30
2023-10-09T02:05:11.352Z,18.40
2023-10-09T02:07:59.518Z,18.70
2023-10-09T02:10:49.221Z,18.90
2023-10-09T02:13:36.957Z,18.80
2023-10-09T02:16:30.358Z,18.90
2023-10-09T02:19:32.730Z,18.80
2023-10-09T02:22:20.183Z,18.80
2023-10-09T02:25:12.370Z,18.00
2023-10-09T02:28:02.606Z,18.10
2023-10-09T02:30:52.084Z,18.30
2023-10-09T02:33:41.119Z,18.50
2023-10-09T02:36:29.620Z,18.60
2023-10-09T02:42:29.252Z,18.50
2023-10-09T02:45:28.042Z,18.50
2023-10-09T02:48:15.182Z,17.50
2023-10-09T02:51:04.619Z,17.80
2023-10-09T02:54:01.941Z,18.30
2023-10-09T02:56:58.641Z,18.50
2023-10-09T02:59:46.506Z,18.40
2023-10-09T03:02:37.109Z,18.30
2023-10-09T03:05:24.642Z,17.60
2023-10-09T03:08:15.783Z,18.30
2023-10-09T03:11:02.745Z,18.00
2023-10-09T03:13:49.313Z,18.10
2023-10-09T03:16:36.023Z,18.20
2023-10-09T03:19:25.969Z,18.40
2023-10-09T03:22:17.716Z,18.30
2023-10-09T03:25:12.566Z,18.50
2023-10-09T03:28:00.309Z,18.80
2023-10-09T03:30:51.613Z,18.90
2023-10-09T03:33:38.111Z,18.70
2023-10-09T03:36:27.782Z,18.70
2023-10-09T03:39:26.073Z,18.60
2023-10-09T03:42:20.700Z,18.60
2023-10-09T03:45:25.702Z,18.70
2023-10-09T03:48:21.795Z,17.90
2023-10-09T03:51:12.755Z,17.90
2023-10-09T03:54:09.377Z,17.50
2023-10-09T03:57:00.199Z,17.40
2023-10-09T03:59:48.897Z,17.40
2023-10-09T04:02:35.958Z,17.20
2023-10-09T04:05:24.034Z,17.50
2023-10-09T04:08:17.664Z,16.80
2023-10-09T04:11:07.559Z,17.00
2023-10-09T04:14:01.166Z,17.40
2023-10-09T04:17:04.433Z,17.10
2023-10-09T04:20:11.658Z,17.00
2023-10-09T04:23:06.281Z,16.80
2023-10-09T04:25:53.864Z,16.90
2023-10-09T04:28:43.243Z,16.70
2023-10-09T04:31:33.280Z,16.90
2023-10-09T04:34:29.431Z,17.00
2023-10-09T04:37:37.914Z,17.20
2023-10-09T04:40:38.385Z,17.70
2023-10-09T04:43:27.296Z,17.60
2023-10-09T04:46:16.408Z,17.20
2023-10-09T04:49:25.180Z,17.20
2023-10-09T04:52:21.101Z,17.20
2023-10-09T04:55:18.712Z,17.80
2023-10-09T04:58:13.920Z,17.70
2023-10-09T05:01:13.999Z,18.00
2023-10-09T05:04:05.474Z,17.50
2023-10-09T05:07:00.657Z,17.20
2023-10-09T05:09:56.810Z,17.20
2023-10-09T05:12:47.942Z,17.20
2023-10-09T05:15:36.606Z,17.30
2023-10-09T05:18:28.588Z,17.10
2023-10-09T05:21:34.795Z,17.40
2023-10-09T05:24:24.718Z,17.50
2023-10-09T05:27:43.764Z,17.80
2023-10-09T05:30:34.992Z,17.70
2023-10-09T05:33:34.411Z,18.00
2023-10-09T05:36:34.884Z,17.40
2023-10-09T05:39:42.276Z,18.00
2023-10-09T05:42:46.081Z,17.90
2023-10-09T05:45:50.825Z,17.80
2023-10-09T05:48:55.595Z,17.70
2023-10-09T05:51:54.468Z,17.80
2023-10-09T05:55:15.727Z,18.10
2023-10-09T05:58:32.693Z,18.10
2023-10-09T06:01:37.017Z,18.30
2023-10-09T06:04:34.897Z,18.10
2023-10-09T06:07:41.748Z,18.00
2023-10-09T06:10:42.372Z,18.20
2023-10-09T06:13:39.551Z,18.60
2023-10-09T06:16:42.433Z,18.70
2023-10-09T06:19:32.827Z,18.60
2023-10-09T06:22:51.615Z,18.50
2023-10-09T06:25:42.993Z,18.50
2023-10-09T06:28:37.088Z,18.70
2023-10-09T06:31:47.890Z,18.60
2023-10-09T06:34:36.260Z,18.90
2023-10-09T06:37:39.571Z,18.70
2023-10-09T06:40:39.935Z,18.80
2023-10-09T06:43:29.533Z,18.80
2023-10-09T06:46:40.848Z,17.60
2023-10-09T06:49:34.579Z,17.20
2023-10-09T06:52:41.330Z,17.10
2023-10-09T06:55:34.820Z,17.60
2023-10-09T06:58:10.834Z,17.70
2023-10-09T07:00:58.290Z,17.70
2023-10-09T07:03:34.016Z,17.20
2023-10-09T07:06:10.763Z,17.10
2023-10-09T07:09:17.002Z,17.40
2023-10-09T07:12:10.793Z,17.30
2023-10-09T07:15:25.518Z,17.50
2023-10-09T07:18:21.016Z,17.70
2023-10-09T07:21:19.093Z,16.90
2023-10-09T07:24:15.745Z,17.20
2023-10-09T07:27:08.182Z,17.40
2023-10-09T07:29:56.490Z,17.70
2023-10-09T07:32:44.545Z,17.70
2023-10-09T07:35:50.280Z,17.80
2023-10-09T07:38:45.788Z,17.80
2023-10-09T07:41:38.809Z,18.30
2023-10-09T07:44:41.102Z,18.20
2023-10-09T07:47:44.235Z,18.20
2023-10-09T07:50:22.204Z,18.40
2023-10-09T07:52:58.523Z,17.80
2023-10-09T07:55:40.483Z,17.60
2023-10-09T07:58:12.818Z,17.30
2023-10-09T08:01:07.499Z,17.60
2023-10-09T08:03:36.139Z,18.00
2023-10-09T08:06:30.842Z,18.10
2023-10-09T08:09:20.361Z,18.40
2023-10-09T08:12:15.534Z,18.60
2023-10-09T08:14:46.950Z,18.10
2023-10-09T08:17:18.464Z,18.30
2023-10-09T08:19:54.928Z,18.30
2023-10-09T08:22:51.319Z,18.20
2023-10-09T08:25:28.287Z,18.30
2023-10-09T08:28:11.024Z,18.60
2023-10-09T08:30:50.992Z,18.70
2023-10-09T08:34:30.374Z,18.60
2023-10-09T08:39:14.727Z,18.60
2023-10-09T08:41:43.020Z,18.50
2023-10-09T08:44:16.055Z,18.30
2023-10-09T08:46:45.857Z,18.40
2023-10-09T08:49:34.855Z,18.40
2023-10-09T08:52:21.875Z,18.50
2023-10-09T08:55:09.240Z,18.70
2023-10-09T08:57:58.798Z,18.70
2023-10-09T09:00:48.449Z,17.90
2023-10-09T09:03:44.615Z,17.40
2023-10-09T09:06:42.113Z,17.40
2023-10-09T09:09:31.793Z,17.20
2023-10-09T09:12:18.608Z,17.60
2023-10-09T09:15:08.202Z,18.10
2023-10-09T09:18:07.282Z,18.40
2023-10-09T09:20:55.066Z,18.80
2023-10-09T09:23:56.785Z,18.60
2023-10-09T09:26:46.954Z,17.90
2023-10-09T09:29:41.614Z,18.70
2023-10-09T09:32:36.672Z,18.00
2023-10-09T09:35:28.775Z,18.10
2023-10-09T09:38:18.704Z,18.50
2023-10-09T09:41:08.493Z,18.60
2023-10-09T09:43:58.209Z,18.60
2023-10-09T09:46:46.398Z,18.70
2023-10-09T09:49:37.334Z,18.60
2023-10-09T09:52:26.472Z,18.80
2023-10-09T09:55:19.224Z,18.70
2023-10-09T09:58:07.391Z,18.50
2023-10-09T10:01:01.042Z,19.30
2023-10-09T10:03:52.030Z,19.10
2023-10-09T10:06:41.408Z,19.00
2023-10-09T10:09:42.454Z,19.20
2023-10-09T10:13:01.250Z,19.00
2023-10-09T10:16:13.193Z,19.20
2023-10-09T10:19:07.993Z,19.20
2023-10-09T10:21:43.254Z,19.20
2023-10-09T10:24:55.620Z,18.90
2023-10-09T10:27:28.424Z,19.00
2023-10-09T10:30:34.647Z,18.90
2023-10-09T10:33:23.765Z,18.80
2023-10-09T10:36:11.111Z,19.00
2023-10-09T10:39:08.458Z,19.20
2023-10-09T10:41:57.295Z,19.30
2023-10-09T10:44:45.271Z,18.80
2023-10-09T10:47:36.102Z,18.90
2023-10-09T10:50:36.775Z,19.00
2023-10-09T10:53:23.749Z,19.10
2023-10-09T10:56:22.301Z,19.00
2023-10-09T10:59:23.832Z,19.30
2023-10-09T11:02:26.236Z,19.60
2023-10-09T11:05:25.145Z,19.60
2023-10-09T11:08:12.457Z,19.50
2023-10-09T11:11:17.293Z,19.30
2023-10-09T11:14:17.699Z,19.30
2023-10-09T11:17:24.908Z,19.40
2023-10-09T11:20:27.044Z,19.10
2023-10-09T11:23:16.851Z,19.60
2023-10-09T11:26:22.321Z,19.90
2023-10-09T11:29:24.329Z,19.90
2023-10-09T11:32:18.592Z,19.40
2023-10-09T11:35:15.193Z,19.50
2023-10-09T11:38:02.808Z,19.70
2023-10-09T11:41:07.094Z,19.90
2023-10-09T11:43:55.471Z,19.90
2023-10-09T11:46:59.627Z,20.40
2023-10-09T11:49:59.298Z,20.40
2023-10-09T11:53:18.693Z,20.50
2023-10-09T11:56:05.726Z,20.70
2023-10-09T11:58:55.688Z,21.10
2023-10-09T12:01:56.208Z,20.90
2023-10-09T12:04:46.363Z,20.70
2023-10-09T12:07:33.875Z,21.30
2023-10-09T12:10:25.805Z,21.30
2023-10-09T12:13:12.283Z,21.00
2023-10-09T12:15:59.022Z,21.10
2023-10-09T12:18:54.122Z,20.60
2023-10-09T12:21:44.049Z,20.30
2023-10-09T12:24:31.184Z,20.50
2023-10-09T12:27:23.816Z,20.60
2023-10-09T12:30:11.097Z,20.70
2023-10-09T12:32:59.811Z,20.60
2023-10-09T12:35:48.477Z,21.20
2023-10-09T12:38:35.312Z,20.90
2023-10-09T12:41:26.960Z,21.00
2023-10-09T12:44:19.970Z,21.20
2023-10-09T12:47:07.174Z,21.40
2023-10-09T12:49:57.526Z,21.30
2023-10-09T12:52:51.770Z,21.40
2023-10-09T12:55:41.455Z,21.10
2023-10-09T12:58:32.744Z,20.80
2023-10-09T13:01:24.205Z,21.00
2023-10-09T13:04:12.737Z,20.90
2023-10-09T13:07:11.044Z,20.30
2023-10-09T13:10:13.208Z,20.40
2023-10-09T13:13:02.169Z,20.70
2023-10-09T13:16:08.166Z,20.80
2023-10-09T13:18:58.509Z,20.60
2023-10-09T13:21:48.133Z,20.60
2023-10-09T13:24:40.171Z,20.90
2023-10-09T13:27:37.256Z,21.10
2023-10-09T13:30:28.929Z,21.10
2023-10-09T13:33:18.287Z,21.30
2023-10-09T13:36:17.450Z,21.40
2023-10-09T13:39:19.912Z,21.40
2023-10-09T13:45:17.076Z,21.40
2023-10-09T13:48:05.484Z,21.80
2023-10-09T13:50:59.625Z,21.80
2023-10-09T13:53:47.252Z,21.80
2023-10-09T13:56:36.837Z,21.50
2023-10-09T13:59:26.410Z,21.60
2023-10-09T14:02:28.317Z,21.60
2023-10-09T14:04:58.669Z,21.70
2023-10-09T14:07:26.893Z,21.40
2023-10-09T14:10:11.069Z,21.50
2023-10-09T14:12:41.876Z,21.50
2023-10-09T14:15:20.437Z,21.70
2023-10-09T14:17:56.773Z,21.80
2023-10-09T14:20:31.529Z,21.80
2023-10-09T14:23:07.725Z,21.80
2023-10-09T14:25:41.155Z,21.60
2023-10-09T14:28:12.434Z,21.60
2023-10-09T14:30:47.305Z,21.50
2023-10-09T14:33:23.885Z,21.70
2023-10-09T14:35:53.884Z,21.90
2023-10-09T14:38:30.518Z,21.90
2023-10-09T14:41:08.441Z,21.60
2023-10-09T14:43:36.686Z,21.40
2023-10-09T14:46:11.768Z,21.50
2023-10-09T14:48:42.280Z,21.40
2023-10-09T14:51:11.870Z,21.20
2023-10-09T14:53:40.163Z,21.00
2023-10-09T14:56:10.047Z,21.20
2023-10-09T14:58:59.386Z,20.80
2023-10-09T15:01:48.858Z,20.70
2023-10-09T15:04:38.306Z,20.60
2023-10-09T15:07:39.273Z,20.60
2023-10-09T15:10:31.514Z,21.10
2023-10-09T15:13:18.488Z,20.80
2023-10-09T15:16:05.836Z,20.50
2023-10-09T15:18:55.692Z,20.70
2023-10-09T15:21:54.036Z,20.30
2023-10-09T15:24:41.868Z,20.40
2023-10-09T15:27:29.997Z,20.70
2023-10-09T15:30:20.182Z,20.80
2023-10-09T15:33:10.123Z,20.90
2023-10-09T15:35:57.450Z,20.60
2023-10-09T15:38:45.242Z,20.90
2023-10-09T15:41:35.891Z,21.10
2023-10-09T15:44:28.068Z,21.30
2023-10-09T15:47:16.942Z,21.30
2023-10-09T15:50:05.895Z,21.10
2023-10-09T15:52:56.584Z,20.80
2023-10-09T15:55:45.232Z,21.10
2023-10-09T15:58:34.675Z,21.30
2023-10-09T16:01:21.658Z,21.20
2023-10-09T16:04:12.194Z,20.70
2023-10-09T16:06:58.852Z,20.70
2023-10-09T16:09:47.813Z,21.00
2023-10-09T16:12:38.369Z,21.40
2023-10-09T16:15:26.087Z,21.20
2023-10-09T16:18:07.620Z,21.30
2023-10-09T16:20:38.479Z,21.40
2023-10-09T16:23:07.652Z,21.50
2023-10-09T16:25:36.110Z,21.20
2023-10-09T16:28:06.770Z,21.30
2023-10-09T16:30:39.265Z,21.30
2023-10-09T16:33:10.442Z,21.20
2023-10-09T16:35:41.389Z,21.20
2023-10-09T16:38:13.390Z,21.20
2023-10-09T16:40:47.888Z,21.30
2023-10-09T16:43:22.291Z,21.40
2023-10-09T16:45:58.190Z,21.10
2023-10-09T16:48:28.842Z,21.30
2023-10-09T16:51:06.224Z,21.40
2023-10-09T16:53:37.647Z,21.10
2023-10-09T16:56:10.946Z,21.00
2023-10-09T16:58:42.678Z,20.90
2023-10-09T17:01:15.399Z,20.60
2023-10-09T17:03:47.020Z,20.90
2023-10-09T17:06:21.709Z,20.50
2023-10-09T17:08:54.375Z,20.70
2023-10-09T17:11:26.030Z,21.00
2023-10-09T17:13:58.757Z,21.00
2023-10-09T17:16:30.101Z,20.90
2023-10-09T17:19:01.098Z,20.90
2023-10-09T17:21:49.095Z,21.00
2023-10-09T17:24:38.492Z,20.70
2023-10-09T17:27:25.116Z,20.90
2023-10-09T17:30:16.594Z,21.30
2023-10-09T17:32:49.374Z,21.00
2023-10-09T17:35:20.173Z,20.90
2023-10-09T17:37:51.582Z,20.50
2023-10-09T17:40:20.455Z,20.20
2023-10-09T17:42:48.767Z,20.40
2023-10-09T17:45:23.392Z,20.60
2023-10-09T17:47:53.980Z,20.60
2023-10-09T17:50:23.584Z,20.50
2023-10-09T17:52:55.228Z,20.40
2023-10-09T17:55:30.842Z,20.60
2023-10-09T17:57:59.379Z,20.10
2023-10-09T18:00:31.322Z,20.20
2023-10-09T18:03:00.050Z,20.10
2023-10-09T18:05:30.738Z,20.30
2023-10-09T18:08:02.676Z,20.00
2023-10-09T18:10:34.463Z,20.00
2023-10-09T18:13:03.109Z,20.30
2023-10-09T18:15:51.545Z,20.20
2023-10-09T18:18:40.830Z,20.50
2023-10-09T18:21:27.825Z,20.40
2023-10-09T18:24:15.862Z,20.40
2023-10-09T18:27:02.802Z,20.60
2023-10-09T18:29:50.449Z,20.50
2023-10-09T18:32:41.360Z,20.30
2023-10-09T18:35:31.484Z,20.40
2023-10-09T18:38:20.885Z,20.30
2023-10-09T18:41:08.391Z,20.60
2023-10-09T18:43:58.638Z,20.20
2023-10-09T18:46:45.290Z,20.10
2023-10-09T18:49:33.966Z,19.90
2023-10-09T18:52:21.451Z,20.10
2023-10-09T18:54:50.648Z,20.40
2023-10-09T18:57:24.364Z,20.40
2023-10-09T18:59:53.501Z,20.20
2023-10-09T19:02:24.154Z,20.20
2023-10-09T19:04:53.737Z,20.20
2023-10-09T19:07:24.986Z,20.30
2023-10-09T19:09:57.176Z,20.20
2023-10-09T19:12:25.304Z,20.20
2023-10-09T19:14:54.426Z,20.30
2023-10-09T19:17:22.654Z,20.50
2023-10-09T19:20:19.935Z,20.60
2023-10-09T19:23:09.936Z,20.50
2023-10-09T19:25:56.679Z,20.50
2023-10-09T19:28:48.996Z,20.50
2023-10-09T19:31:36.795Z,20.10
2023-10-09T19:34:23.329Z,20.40
2023-10-09T19:37:12.178Z,20.50
2023-10-09T19:39:58.786Z,20.60
2023-10-09T19:42:45.287Z,20.80
2023-10-09T19:45:31.851Z,21.00
2023-10-09T19:48:18.775Z,21.00
2023-10-09T19:51:08.920Z,21.00
2023-10-09T19:53:59.130Z,21.00
2023-10-09T19:56:46.522Z,20.90
2023-10-09T19:59:33.348Z,20.80
2023-10-09T20:02:19.737Z,20.60
2023-10-09T20:05:07.269Z,20.60
2023-10-09T20:07:54.549Z,20.60
2023-10-09T20:10:43.140Z,20.70
2023-10-09T20:13:31.898Z,20.70
2023-10-09T20:16:19.185Z,20.80
2023-10-09T20:19:09.365Z,20.80
2023-10-09T20:21:56.717Z,20.70
2023-10-09T20:24:43.224Z,20.60
2023-10-09T20:27:20.544Z,20.80
2023-10-09T20:29:51.144Z,20.70
2023-10-09T20:32:23.353Z,20.60
2023-10-09T20:34:57.922Z,20.40
2023-10-09T20:37:28.748Z,20.50
2023-10-09T20:40:00.861Z,20.60
2023-10-09T20:42:35.600Z,20.50
2023-10-09T20:45:08.420Z,20.10
2023-10-09T20:47:38.913Z,20.30
2023-10-09T20:50:08.408Z,20.30
2023-10-09T20:52:42.375Z,20.50
2023-10-09T20:55:11.364Z,19.50
2023-10-09T20:57:41.582Z,19.90
2023-10-09T21:00:20.079Z,20.00
2023-10-09T21:02:48.967Z,20.00
2023-10-09T21:05:20.471Z,20.00
2023-10-09T21:07:52.915Z,20.10
2023-10-09T21:10:21.944Z,19.90
2023-10-09T21:12:52.449Z,19.80
2023-10-09T21:15:25.058Z,20.00
2023-10-09T21:17:53.576Z,20.10
2023-10-09T21:20:50.496Z,20.40
2023-10-09T21:23:37.060Z,20.50
2023-10-09T21:26:25.491Z,20.30
2023-10-09T21:29:25.686Z,20.10
2023-10-09T21:32:16.541Z,20.20
2023-10-09T21:35:05.121Z,20.40
2023-10-09T21:37:53.429Z,20.00
2023-10-09T21:40:40.734Z,20.30
2023-10-09T21:43:28.104Z,20.10
2023-10-09T21:46:17.097Z,20.20
2023-10-09T21:49:05.999Z,20.00
2023-10-09T21:51:52.418Z,20.00
2023-10-09T21:54:42.473Z,19.80
2023-10-09T21:57:32.200Z,19.80
2023-10-09T22:00:19.686Z,20.00
2023-10-09T22:03:09.921Z,20.10
2023-10-09T22:06:00.466Z,20.20
2023-10-09T22:08:47.686Z,20.20
2023-10-09T22:11:19.444Z,20.30
2023-10-09T22:13:47.812Z,20.10
2023-10-09T22:16:16.035Z,20.00
2023-10-09T22:19:03.041Z,20.20
2023-10-09T22:22:00.921Z,20.20
2023-10-09T22:24:49.699Z,20.20
2023-10-09T22:27:36.359Z,20.40
2023-10-09T22:30:30.872Z,20.10
2023-10-09T22:33:22.702Z,20.20
2023-10-09T22:36:12.202Z,20.20
2023-10-09T22:38:58.965Z,20.10
2023-10-09T22:41:45.633Z,19.90
2023-10-09T22:44:33.644Z,19.70
2023-10-09T22:47:23.960Z,19.90
2023-10-09T22:50:26.622Z,20.00
2023-10-09T22:53:22.996Z,19.90
2023-10-09T22:56:14.604Z,20.10
2023-10-09T22:59:21.101Z,20.10
2023-10-09T23:02:13.527Z,20.10
2023-10-09T23:05:08.741Z,20.10
2023-10-09T23:08:01.549Z,20.10
2023-10-09T23:10:53.345Z,20.40
2023-10-09T23:13:53.619Z,20.20
2023-10-09T23:16:53.879Z,20.10
2023-10-09T23:19:45.424Z,20.30
2023-10-09T23:22:50.975Z,20.10
2023-10-09T23:25:53.424Z,19.80
2023-10-09T23:28:54.446Z,19.60
2023-10-09T23:32:06.727Z,19.50
2023-10-09T23:34:56.966Z,19.40
2023-10-09T23:38:04.312Z,19.60
2023-10-09T23:40:51.920Z,19.90
2023-10-09T23:43:45.770Z,19.40
2023-10-09T23:46:37.177Z,19.40
2023-10-09T23:49:25.212Z,19.70
2023-10-09T23:52:14.993Z,19.90
2023-10-09T23:55:13.344Z,20.10
2023-10-09T23:58:15.264Z,20.00
